Aérodrome :
LOGIN :

S'inscrire | Disclaimer

   EN    FR    IT 

 










Légende :    VFR   VFR Marginal   IFR   IFR Intensif   IFR Très Intensif
Visi : 
Plafond : 
>= 8 km
>= 3000ft
5 à 8 km
1000 à 3000 ft
1500m à 5 km
500 à 1000 ft
800 à 1500m
200 à 500 ft
< 800m
< 200 ft
Symboles :   Orages  Brouillard  Fortes neiges  Fortes précipitations  Vent > 20 kt
SIGMETs :   Divers  Orages  Givrage  Turbulence  Onde Orograph.  Cendres Volcan.






- Altitude de l'aérodrome : 83 ft
- Code IATA : LHR


EGLL - London Heathrow

DERNIER METAR :
  • 140920Z AUTO 15007KT 110V220 9999 FEW007 BKN022 05/04 Q0993 NOSIG

METARs EXPIRÉS :
  • 140850Z AUTO 16007KT 110V180 9999 BKN023 04/04 Q0993 NOSIG
  • 140820Z AUTO 16005KT 110V200 9999 BKN022 BKN028 04/04 Q0992 NOSIG
  • 140750Z AUTO 19005KT 140V290 9999 FEW025 BKN041 04/03 Q0992 TEMPO BKN010
  • 140720Z AUTO 21006KT 160V260 9999 SCT007 BKN026 04/03 Q0991 TEMPO BKN008
  • 140650Z AUTO 21006KT 180V250 9999 SCT008 BKN028 BKN034 04/03 Q0990 TEMPO BKN006

TAF TAF EGLL
Valide du 14 à 06h jusqu'au 15 à 12h UTC


140501Z 1406/1512 27007KT 9999 BKN018
TEMPO 1406/1412 BKN008
PROB30
TEMPO 1406/1410 7000 RA
BECMG 1421/1424 02010KT
PROB30
TEMPO 1501/1511 7000 -SHRA BKN008



MET'MAP, la Météo Aéronautique d'un coup d'oeil ! - Copyright ORBIFLY Décembre 2007 - Disclaimer

ORBIFLY MET'MAP TEAM :

Programmation & Développement : Alexandra Zaïnal
Conception & Développement : Baudouin d'Aumeries
Co-Programmation & Développement : Marc-Olivier Méhu
Soutien technique & logistique : Manuel Goepfert

Contact : metmap@orbifly.com




SOURCES & CREDITS :

   NOAA